KRBL/RBL METAR and TAF weather

Enter ICAO airport designator
Station Type Date Time Source
KRBL METAR 2021/07/28 03:54 UTC NOAA

KRBL 280354Z AUTO 33007KT 10SM CLR 25/12 A3000 RMK AO2 SLP153 T02500122


Station Type Date Time Source
KRBL Decoded METAR 2021/07/28 03:54 UTC NOAA

RED BLUFF MUNICIPAL AIRPORT, CA, United States (KRBL) 40-09N 122-15W 104M
Jul 27, 2021 - 11:54 PM EDT / 2021.07.28 0354 UTC
Wind: from the NNW (330 degrees) at 8 MPH (7 KT):0
Visibility: 10 mile(s):0
Sky conditions: clear
Temperature: 77.0 F (25.0 C)
Dew Point: 54.0 F (12.2 C)
Relative Humidity: 44%
Pressure (altimeter): 30 in. Hg (1015 hPa)
ob: KRBL 280354Z AUTO 33007KT 10SM CLR 25/12 A3000 RMK AO2 SLP153 T02500122
cycle: 4

Station Type Date Time Source
KRBL TAF 2021/07/27 21:24 UTC NOAA

TAF
AMD KRBL 272121Z 2721/2818 36012KT P6SM SCT150
FM280100 29005KT P6SM SCT250

Example: see airport list